Time,TemperatureF,DewpointF,PressureIn,WindDirection,WindDirectionDegrees,WindSpeedMPH,WindSpeedGustMPH,Humidity,HourlyPrecipIn,Conditions,Clouds,dailyrainin,SoftwareType,DateUTC
2013-05-07 00:01:00,56.0,44.8,30.02,NE,56,0.0,0.0,66,0.00,,SKC,0.00,VWS V14.01,2013-05-07 05:01:00,
2013-05-07 00:06:00,56.1,44.9,30.02,ENE,57,0.0,0.0,66,0.00,,SKC,0.00,VWS V14.01,2013-05-07 05:06:00,
2013-05-07 00:11:00,56.4,45.2,30.02,ENE,57,0.0,1.0,66,0.00,,SKC,0.00,VWS V14.01,2013-05-07 05:11:00,
2013-05-07 00:16:00,56.6,45.4,30.03,ENE,57,0.0,0.0,66,0.00,,SKC,0.00,VWS V14.01,2013-05-07 05:16:00,
2013-05-07 00:21:00,56.8,45.6,30.03,ENE,57,0.0,0.0,66,0.00,,SKC,0.00,VWS V14.01,2013-05-07 05:21:00,
2013-05-07 00:26:00,56.9,45.7,30.03,ENE,74,0.0,0.0,66,0.00,,SKC,0.00,VWS V14.01,2013-05-07 05:26:00,
2013-05-07 00:31:00,56.8,45.2,30.03,ENE,74,0.0,0.0,65,0.00,,SKC,0.00,VWS V14.01,2013-05-07 05:31:00,
2013-05-07 00:36:00,56.6,45.0,30.03,ENE,74,0.0,0.0,65,0.00,,SKC,0.00,VWS V14.01,2013-05-07 05:36:00,
2013-05-07 00:41:00,56.3,45.1,30.03,ENE,74,0.0,0.0,66,0.00,,SKC,0.00,VWS V14.01,2013-05-07 05:41:00,
2013-05-07 00:46:00,56.0,45.2,30.03,ENE,74,0.0,0.0,67,0.00,,SKC,0.00,VWS V14.01,2013-05-07 05:46:00,
2013-05-07 00:51:00,55.7,44.9,30.02,ENE,74,0.0,0.0,67,0.00,,SKC,0.00,VWS V14.01,2013-05-07 05:51:00,
2013-05-07 00:56:00,55.5,45.1,30.02,ENE,74,0.0,0.0,68,0.00,,SKC,0.00,VWS V14.01,2013-05-07 05:56:00,
2013-05-07 01:01:00,55.3,44.9,30.02,ENE,74,0.0,0.0,68,0.00,,SKC,0.00,VWS V14.01,2013-05-07 06:01:00,
2013-05-07 01:06:00,55.4,45.4,30.02,ENE,74,0.0,0.0,69,0.00,,SKC,0.00,VWS V14.01,2013-05-07 06:06:00,
2013-05-07 01:11:00,55.5,45.5,30.02,ENE,74,0.0,0.0,69,0.00,,SKC,0.00,VWS V14.01,2013-05-07 06:11:00,
2013-05-07 01:16:00,55.5,45.5,30.02,ENE,74,0.0,0.0,69,0.00,,SKC,0.00,VWS V14.01,2013-05-07 06:16:00,
2013-05-07 01:21:00,55.4,45.4,30.02,ENE,74,0.0,0.0,69,0.00,,SKC,0.00,VWS V14.01,2013-05-07 06:21:00,
2013-05-07 01:26:00,55.3,45.3,30.02,ENE,74,0.0,0.0,69,0.00,,SKC,0.00,VWS V14.01,2013-05-07 06:26:00,
2013-05-07 01:31:00,55.3,45.3,30.02,ENE,74,0.0,0.0,69,0.00,,SKC,0.00,VWS V14.01,2013-05-07 06:31:00,
2013-05-07 01:36:00,55.3,45.3,30.02,ENE,74,0.0,0.0,69,0.00,,SKC,0.00,VWS V14.01,2013-05-07 06:36:00,
2013-05-07 01:41:00,55.3,45.3,30.02,ENE,74,0.0,0.0,69,0.00,,SKC,0.00,VWS V14.01,2013-05-07 06:41:00,
2013-05-07 01:46:00,55.2,45.2,30.02,ENE,74,0.0,0.0,69,0.00,,SKC,0.00,VWS V14.01,2013-05-07 06:46:00,
2013-05-07 01:51:00,55.1,45.5,30.02,ENE,74,0.0,0.0,70,0.00,,SKC,0.00,VWS V14.01,2013-05-07 06:51:00,
2013-05-07 01:56:00,55.1,45.5,30.01,ENE,74,0.0,0.0,70,0.00,,SKC,0.00,VWS V14.01,2013-05-07 06:56:00,
2013-05-07 02:01:00,55.1,45.5,30.01,ENE,74,0.0,0.0,70,0.00,,SKC,0.00,VWS V14.01,2013-05-07 07:01:00,
2013-05-07 02:06:00,54.9,45.3,30.01,ENE,74,0.0,0.0,70,0.00,,SKC,0.00,VWS V14.01,2013-05-07 07:06:00,
2013-05-07 02:11:00,54.7,45.1,30.01,ENE,74,0.0,1.0,70,0.00,,SKC,0.00,VWS V14.01,2013-05-07 07:11:00,
2013-05-07 02:16:00,54.8,45.2,30.01,ENE,74,0.0,0.0,70,0.00,,SKC,0.00,VWS V14.01,2013-05-07 07:16:00,
2013-05-07 02:21:00,54.8,45.2,30.01,ENE,74,0.0,1.0,70,0.00,,SKC,0.00,VWS V14.01,2013-05-07 07:21:00,
2013-05-07 02:26:00,55.1,45.5,30.00,ENE,74,0.0,1.0,70,0.00,,SKC,0.00,VWS V14.01,2013-05-07 07:26:00,
2013-05-07 02:31:00,55.5,45.5,30.00,ENE,74,0.0,3.0,69,0.00,,SKC,0.00,VWS V14.01,2013-05-07 07:31:00,
2013-05-07 02:36:00,55.8,45.8,30.00,ENE,74,0.0,0.0,69,0.00,,SKC,0.00,VWS V14.01,2013-05-07 07:36:00,
2013-05-07 02:41:00,55.7,45.3,30.00,ENE,74,0.0,0.0,68,0.00,,SKC,0.00,VWS V14.01,2013-05-07 07:41:00,
2013-05-07 02:46:00,55.5,45.5,30.00,ENE,74,0.0,0.0,69,0.00,,SKC,0.00,VWS V14.01,2013-05-07 07:46:00,
2013-05-07 02:51:00,55.3,45.3,30.00,ENE,74,0.0,0.0,69,0.00,,SKC,0.00,VWS V14.01,2013-05-07 07:51:00,
2013-05-07 02:56:00,54.9,44.9,30.00,ENE,74,0.0,0.0,69,0.00,,SKC,0.00,VWS V14.01,2013-05-07 07:56:00,
2013-05-07 03:01:00,54.6,45.0,30.00,ENE,74,0.0,0.0,70,0.00,,SKC,0.00,VWS V14.01,2013-05-07 08:01:00,
2013-05-07 03:06:00,54.2,45.0,29.99,ENE,74,0.0,1.0,71,0.00,,SKC,0.00,VWS V14.01,2013-05-07 08:06:00,
2013-05-07 03:11:00,53.9,44.7,29.99,ENE,74,0.0,0.0,71,0.00,,SKC,0.00,VWS V14.01,2013-05-07 08:11:00,
2013-05-07 03:16:00,53.7,44.9,29.99,ENE,74,0.0,0.0,72,0.00,,SKC,0.00,VWS V14.01,2013-05-07 08:16:00,
2013-05-07 03:21:00,53.6,44.8,30.00,ENE,74,0.0,0.0,72,0.00,,SKC,0.00,VWS V14.01,2013-05-07 08:21:00,
2013-05-07 03:26:00,53.5,44.7,30.00,ENE,74,0.0,0.0,72,0.00,,SKC,0.00,VWS V14.01,2013-05-07 08:26:00,
2013-05-07 03:31:00,53.3,44.5,30.00,ENE,74,0.0,0.0,72,0.00,,SKC,0.00,VWS V14.01,2013-05-07 08:31:00,
2013-05-07 03:36:00,52.9,44.5,30.00,ENE,74,0.0,0.0,73,0.00,,SKC,0.00,VWS V14.01,2013-05-07 08:36:00,
2013-05-07 03:41:00,52.6,44.2,30.00,ENE,74,0.0,0.0,73,0.00,,SKC,0.00,VWS V14.01,2013-05-07 08:41:00,
2013-05-07 03:46:00,52.1,43.7,30.00,ENE,74,0.0,0.0,73,0.00,,SKC,0.00,VWS V14.01,2013-05-07 08:46:00,
2013-05-07 03:51:00,51.7,44.0,30.00,ENE,74,0.0,0.0,75,0.00,,SKC,0.00,VWS V14.01,2013-05-07 08:51:00,
2013-05-07 03:56:00,51.5,43.8,30.00,ENE,74,0.0,0.0,75,0.00,,SKC,0.00,VWS V14.01,2013-05-07 08:56:00,
2013-05-07 04:01:00,51.4,44.4,30.00,ENE,74,0.0,0.0,77,0.00,,SKC,0.00,VWS V14.01,2013-05-07 09:01:00,
2013-05-07 04:06:00,51.5,44.5,30.00,ENE,74,0.0,0.0,77,0.00,,SKC,0.00,VWS V14.01,2013-05-07 09:06:00,
2013-05-07 04:11:00,51.5,44.5,30.00,ENE,74,0.0,1.0,77,0.00,,SKC,0.00,VWS V14.01,2013-05-07 09:11:00,
2013-05-07 04:16:00,51.5,44.5,30.00,ENE,74,1.0,1.0,77,0.00,,SKC,0.00,VWS V14.01,2013-05-07 09:16:00,
2013-05-07 04:21:00,51.4,44.4,30.00,ENE,74,1.0,1.0,77,0.00,,SKC,0.00,VWS V14.01,2013-05-07 09:21:00,
2013-05-07 04:26:00,51.5,44.5,30.00,ENE,74,0.0,1.0,77,0.00,,SKC,0.00,VWS V14.01,2013-05-07 09:26:00,
2013-05-07 04:31:00,51.3,44.3,30.00,ENE,74,0.0,2.0,77,0.00,,SKC,0.00,VWS V14.01,2013-05-07 09:31:00,
2013-05-07 04:36:00,51.2,44.2,30.00,ENE,74,0.0,1.0,77,0.00,,SKC,0.00,VWS V14.01,2013-05-07 09:36:00,
2013-05-07 04:41:00,51.2,44.6,30.00,ENE,74,1.0,1.0,78,0.00,,SKC,0.00,VWS V14.01,2013-05-07 09:41:00,
2013-05-07 04:46:00,51.4,44.8,30.00,ENE,74,1.0,1.0,78,0.00,,SKC,0.00,VWS V14.01,2013-05-07 09:46:00,
2013-05-07 04:51:00,51.5,44.9,30.00,East,83,2.0,2.0,78,0.00,,SKC,0.00,VWS V14.01,2013-05-07 09:51:00,
2013-05-07 04:56:00,52.1,45.5,30.00,ESE,110,3.0,4.0,78,0.00,,SKC,0.00,VWS V14.01,2013-05-07 09:56:00,
2013-05-07 05:01:00,52.7,45.7,30.00,ESE,117,0.0,2.0,77,0.00,,SKC,0.00,VWS V14.01,2013-05-07 10:01:00,
2013-05-07 05:06:00,52.9,45.5,30.00,ESE,117,0.0,1.0,76,0.00,,SKC,0.00,VWS V14.01,2013-05-07 10:06:00,
2013-05-07 05:11:00,52.9,45.5,30.00,ESE,117,0.0,0.0,76,0.00,,SKC,0.00,VWS V14.01,2013-05-07 10:11:00,
2013-05-07 05:16:00,52.9,45.5,30.00,ESE,117,0.0,0.0,76,0.00,,SKC,0.00,VWS V14.01,2013-05-07 10:16:00,
2013-05-07 05:21:00,52.9,45.9,30.00,ESE,117,1.0,1.0,77,0.00,,SKC,0.00,VWS V14.01,2013-05-07 10:21:00,
2013-05-07 05:26:00,52.8,45.5,30.00,ESE,117,0.0,0.0,76,0.00,,SKC,0.00,VWS V14.01,2013-05-07 10:26:00,
2013-05-07 05:31:00,52.7,45.4,30.01,ESE,117,0.0,0.0,76,0.00,,SKC,0.00,VWS V14.01,2013-05-07 10:31:00,
2013-05-07 05:36:00,52.6,45.6,30.01,ESE,117,1.0,1.0,77,0.00,,SKC,0.00,VWS V14.01,2013-05-07 10:36:00,
2013-05-07 05:41:00,52.8,45.8,30.01,ESE,117,0.0,1.0,77,0.00,,SKC,0.00,VWS V14.01,2013-05-07 10:41:00,
2013-05-07 05:46:00,52.7,45.7,30.02,ESE,117,0.0,1.0,77,0.00,,SKC,0.00,VWS V14.01,2013-05-07 10:46:00,
2013-05-07 05:51:00,52.4,45.8,30.02,ESE,117,1.0,2.0,78,0.00,,SKC,0.00,VWS V14.01,2013-05-07 10:51:00,
2013-05-07 05:56:00,52.2,45.6,30.02,ESE,117,0.0,1.0,78,0.00,,SKC,0.00,VWS V14.01,2013-05-07 10:56:00,
2013-05-07 06:01:00,52.0,45.7,30.02,ESE,117,0.0,1.0,79,0.00,,SKC,0.00,VWS V14.01,2013-05-07 11:01:00,
2013-05-07 06:06:00,51.8,45.5,30.02,ESE,105,1.0,1.0,79,0.00,,SKC,0.00,VWS V14.01,2013-05-07 11:06:00,
2013-05-07 06:11:00,51.3,45.0,30.02,East,101,2.0,2.0,79,0.00,,SKC,0.00,VWS V14.01,2013-05-07 11:11:00,
2013-05-07 06:16:00,51.1,45.2,30.02,East,101,0.0,0.0,80,0.00,,SKC,0.00,VWS V14.01,2013-05-07 11:16:00,
2013-05-07 06:21:00,51.0,45.1,30.02,East,101,0.0,0.0,80,0.00,,SKC,0.00,VWS V14.01,2013-05-07 11:21:00,
2013-05-07 06:26:00,50.8,44.9,30.03,East,82,0.0,2.0,80,0.00,,SKC,0.00,VWS V14.01,2013-05-07 11:26:00,
2013-05-07 06:31:00,50.6,45.0,30.03,East,82,0.0,0.0,81,0.00,,SKC,0.00,VWS V14.01,2013-05-07 11:31:00,
2013-05-07 06:36:00,50.6,45.0,30.02,East,82,0.0,0.0,81,0.00,,SKC,0.00,VWS V14.01,2013-05-07 11:36:00,
2013-05-07 06:41:00,50.3,44.7,30.02,East,82,0.0,0.0,81,0.00,,SKC,0.00,VWS V14.01,2013-05-07 11:41:00,
2013-05-07 06:46:00,50.2,44.9,30.02,East,81,0.0,0.0,82,0.00,,SKC,0.00,VWS V14.01,2013-05-07 11:46:00,
2013-05-07 06:51:00,50.2,44.9,30.03,East,82,1.0,1.0,82,0.00,,SKC,0.00,VWS V14.01,2013-05-07 11:51:00,
2013-05-07 06:56:00,49.9,44.6,30.03,East,81,0.0,1.0,82,0.00,,SKC,0.00,VWS V14.01,2013-05-07 11:56:00,
2013-05-07 07:01:00,49.6,44.3,30.03,East,81,0.0,1.0,82,0.00,,SKC,0.00,VWS V14.01,2013-05-07 12:01:00,
2013-05-07 07:06:00,49.5,44.6,30.03,East,80,1.0,2.0,83,0.00,,SKC,0.00,VWS V14.01,2013-05-07 12:06:00,
2013-05-07 07:11:00,49.7,45.1,30.03,East,82,0.0,1.0,84,0.00,,SKC,0.00,VWS V14.01,2013-05-07 12:11:00,
2013-05-07 07:16:00,50.1,45.5,30.03,East,82,0.0,0.0,84,0.00,,SKC,0.00,VWS V14.01,2013-05-07 12:16:00,
2013-05-07 07:21:00,50.2,45.6,30.03,East,82,0.0,0.0,84,0.00,,SKC,0.00,VWS V14.01,2013-05-07 12:21:00,
2013-05-07 07:26:00,50.5,45.8,30.03,East,82,0.0,0.0,84,0.00,,SKC,0.00,VWS V14.01,2013-05-07 12:26:00,
2013-05-07 07:31:00,51.6,47.2,30.03,East,82,0.0,0.0,85,0.00,,SKC,0.00,VWS V14.01,2013-05-07 12:31:00,
2013-05-07 07:36:00,52.3,47.9,30.03,East,82,0.0,1.0,85,0.00,,SKC,0.00,VWS V14.01,2013-05-07 12:36:00,
2013-05-07 07:46:00,53.6,48.6,30.04,East,82,0.0,0.0,83,0.00,,SKC,0.00,VWS V14.01,2013-05-07 12:46:00,
2013-05-07 07:51:00,54.3,49.3,30.04,East,82,0.0,0.0,83,0.00,,SKC,0.00,VWS V14.01,2013-05-07 12:51:00,
2013-05-07 07:56:00,55.0,49.6,30.04,East,82,0.0,0.0,82,0.00,,SKC,0.00,VWS V14.01,2013-05-07 12:56:00,
2013-05-07 08:01:00,55.3,49.6,30.04,East,82,0.0,0.0,81,0.00,,SKC,0.00,VWS V14.01,2013-05-07 13:01:00,
2013-05-07 08:06:00,55.7,49.3,30.04,East,82,0.0,0.0,79,0.00,,SKC,0.00,VWS V14.01,2013-05-07 13:06:00,
2013-05-07 08:11:00,56.0,49.6,30.05,East,82,0.0,0.0,79,0.00,,SKC,0.00,VWS V14.01,2013-05-07 13:11:00,
2013-05-07 08:16:00,56.7,50.3,30.05,East,82,0.0,0.0,79,0.00,,SKC,0.00,VWS V14.01,2013-05-07 13:16:00,
2013-05-07 08:21:00,57.4,50.6,30.04,SE,145,0.0,0.0,78,0.00,,SKC,0.00,VWS V14.01,2013-05-07 13:21:00,
2013-05-07 08:26:00,58.1,50.9,30.05,SE,145,1.0,1.0,77,0.00,,SKC,0.00,VWS V14.01,2013-05-07 13:26:00,
2013-05-07 08:31:00,58.5,51.3,30.05,SE,146,0.0,0.0,77,0.00,,SKC,0.00,VWS V14.01,2013-05-07 13:31:00,
2013-05-07 08:36:00,59.0,51.5,30.05,SE,146,1.0,1.0,76,0.00,,SKC,0.00,VWS V14.01,2013-05-07 13:36:00,
2013-05-07 08:41:00,59.4,51.5,30.05,SE,146,0.0,1.0,75,0.00,,SKC,0.00,VWS V14.01,2013-05-07 13:41:00,
2013-05-07 08:46:00,60.2,52.3,30.05,SSW,194,1.0,3.0,75,0.00,,SKC,0.00,VWS V14.01,2013-05-07 13:46:00,
2013-05-07 08:51:00,61.1,52.8,30.05,SSW,192,5.0,7.0,74,0.00,,SKC,0.00,VWS V14.01,2013-05-07 13:51:00,
2013-05-07 08:56:00,61.5,51.6,30.05,SSW,205,3.0,3.0,70,0.00,,SKC,0.00,VWS V14.01,2013-05-07 13:56:00,
2013-05-07 09:01:00,62.0,52.1,30.05,South,185,4.0,4.0,70,0.00,,SKC,0.00,VWS V14.01,2013-05-07 14:01:00,
2013-05-07 09:06:00,62.7,52.4,30.05,SSW,198,6.0,7.0,69,0.00,,SKC,0.00,VWS V14.01,2013-05-07 14:06:00,
2013-05-07 09:11:00,62.9,52.2,30.05,SE,132,7.0,9.0,68,0.00,,SKC,0.00,VWS V14.01,2013-05-07 14:11:00,
2013-05-07 09:16:00,63.2,52.1,30.05,SSW,199,5.0,5.0,67,0.00,,SKC,0.00,VWS V14.01,2013-05-07 14:16:00,
2013-05-07 09:21:00,63.4,51.9,30.05,South,177,6.0,8.0,66,0.00,,SKC,0.00,VWS V14.01,2013-05-07 14:21:00,
2013-05-07 09:26:00,63.7,52.5,30.05,South,184,9.0,10.0,67,0.00,,SKC,0.00,VWS V14.01,2013-05-07 14:26:00,
2013-05-07 09:31:00,64.0,52.0,30.05,SSW,200,4.0,5.0,65,0.00,,SKC,0.00,VWS V14.01,2013-05-07 14:31:00,
2013-05-07 09:36:00,64.4,52.8,30.05,South,169,4.0,6.0,66,0.00,,SKC,0.00,VWS V14.01,2013-05-07 14:36:00,
2013-05-07 09:42:00,65.1,53.1,30.05,SSW,196,6.0,7.0,65,0.00,,SKC,0.00,VWS V14.01,2013-05-07 14:42:00,
2013-05-07 09:46:00,65.2,52.3,30.05,South,188,6.0,6.0,63,0.00,,SKC,0.00,VWS V14.01,2013-05-07 14:46:00,
2013-05-07 09:52:00,65.6,52.7,30.05,SSW,194,6.0,6.0,63,0.00,,SKC,0.00,VWS V14.01,2013-05-07 14:52:00,
2013-05-07 09:57:00,65.8,52.9,30.05,SSW,202,9.0,9.0,63,0.00,,SKC,0.00,VWS V14.01,2013-05-07 14:57:00,
2013-05-07 10:02:00,66.1,53.2,30.05,SSE,151,5.0,7.0,63,0.00,,SKC,0.00,VWS V14.01,2013-05-07 15:02:00,
2013-05-07 10:07:00,66.2,52.4,30.04,SE,136,6.0,6.0,61,0.00,,SKC,0.00,VWS V14.01,2013-05-07 15:07:00,
2013-05-07 10:12:00,66.3,52.9,30.04,South,187,5.0,9.0,62,0.00,,SKC,0.00,VWS V14.01,2013-05-07 15:12:00,
2013-05-07 10:17:00,67.2,53.3,30.04,SSW,210,9.0,9.0,61,0.00,,SKC,0.00,VWS V14.01,2013-05-07 15:17:00,
2013-05-07 10:22:00,67.7,53.8,30.04,SSE,168,3.0,7.0,61,0.00,,SKC,0.00,VWS V14.01,2013-05-07 15:22:00,
2013-05-07 10:27:00,68.1,53.7,30.04,South,169,5.0,11.0,60,0.00,,SKC,0.00,VWS V14.01,2013-05-07 15:27:00,
2013-05-07 10:32:00,68.7,53.3,30.04,South,191,9.0,12.0,58,0.00,,SKC,0.00,VWS V14.01,2013-05-07 15:32:00,
2013-05-07 10:37:00,68.9,54.0,30.04,South,176,9.0,12.0,59,0.00,,SKC,0.00,VWS V14.01,2013-05-07 15:37:00,
2013-05-07 10:42:00,69.0,52.7,30.04,South,178,6.0,11.0,56,0.00,,SKC,0.00,VWS V14.01,2013-05-07 15:42:00,
2013-05-07 10:47:00,68.9,53.1,30.03,SSE,157,3.0,9.0,57,0.00,,SKC,0.00,VWS V14.01,2013-05-07 15:47:00,
2013-05-07 10:52:00,69.3,53.0,30.03,SSE,159,9.0,11.0,56,0.00,,SKC,0.00,VWS V14.01,2013-05-07 15:52:00,
2013-05-07 10:57:00,70.1,54.2,30.03,SE,125,4.0,7.0,57,0.00,,SKC,0.00,VWS V14.01,2013-05-07 15:57:00,
2013-05-07 11:02:00,70.3,53.4,30.03,South,190,11.0,11.0,55,0.00,,SKC,0.00,VWS V14.01,2013-05-07 16:02:00,
2013-05-07 11:07:00,70.2,52.8,30.03,SSW,200,6.0,9.0,54,0.00,,SKC,0.00,VWS V14.01,2013-05-07 16:07:00,
2013-05-07 11:12:00,70.0,53.1,30.03,South,172,10.0,14.0,55,0.00,,SKC,0.00,VWS V14.01,2013-05-07 16:12:00,
2013-05-07 11:17:00,70.8,54.8,30.03,SE,146,7.0,9.0,57,0.00,,SKC,0.00,VWS V14.01,2013-05-07 16:17:00,
2013-05-07 11:22:00,71.9,53.3,30.03,South,173,14.0,15.0,52,0.00,,SKC,0.00,VWS V14.01,2013-05-07 16:22:00,
2013-05-07 11:27:00,71.9,52.8,30.03,SSE,157,4.0,10.0,51,0.00,,SKC,0.00,VWS V14.01,2013-05-07 16:27:00,
2013-05-07 11:32:00,72.1,53.0,30.03,SE,130,4.0,8.0,51,0.00,,SKC,0.00,VWS V14.01,2013-05-07 16:32:00,
2013-05-07 11:37:00,72.5,52.8,30.03,SE,142,7.0,11.0,50,0.00,,SKC,0.00,VWS V14.01,2013-05-07 16:37:00,
2013-05-07 11:42:00,72.4,52.2,30.03,SSW,194,8.0,9.0,49,0.00,,SKC,0.00,VWS V14.01,2013-05-07 16:42:00,
2013-05-07 11:47:00,72.8,53.1,30.03,East,101,6.0,8.0,50,0.00,,SKC,0.00,VWS V14.01,2013-05-07 16:47:00,
2013-05-07 11:52:00,73.0,52.2,30.03,SSW,195,4.0,7.0,48,0.00,,SKC,0.00,VWS V14.01,2013-05-07 16:52:00,
2013-05-07 11:57:00,73.0,52.7,30.03,SE,133,6.0,8.0,49,0.00,,SKC,0.00,VWS V14.01,2013-05-07 16:57:00,
2013-05-07 12:02:00,73.4,52.0,30.03,South,181,9.0,9.0,47,0.00,,SKC,0.00,VWS V14.01,2013-05-07 17:02:00,
2013-05-07 12:07:00,73.3,52.5,30.03,SE,142,3.0,6.0,48,0.00,,SKC,0.00,VWS V14.01,2013-05-07 17:07:00,
2013-05-07 12:12:00,74.2,52.1,30.03,ESE,108,3.0,6.0,46,0.00,,SKC,0.00,VWS V14.01,2013-05-07 17:12:00,
2013-05-07 12:17:00,74.1,51.4,30.03,SSE,150,7.0,10.0,45,0.00,,SKC,0.00,VWS V14.01,2013-05-07 17:17:00,
2013-05-07 12:22:00,74.4,50.5,30.02,South,186,6.0,11.0,43,0.00,,SKC,0.00,VWS V14.01,2013-05-07 17:22:00,
2013-05-07 12:27:00,75.1,51.7,30.03,SSE,158,10.0,11.0,44,0.00,,SKC,0.00,VWS V14.01,2013-05-07 17:27:00,
2013-05-07 12:32:00,74.8,52.1,30.02,SSE,149,4.0,7.0,45,0.00,,SKC,0.00,VWS V14.01,2013-05-07 17:32:00,
2013-05-07 12:37:00,74.9,52.8,30.02,SSE,164,11.0,11.0,46,0.00,,SKC,0.00,VWS V14.01,2013-05-07 17:37:00,
2013-05-07 12:42:00,75.0,50.4,30.02,SSW,196,7.0,11.0,42,0.00,,SKC,0.00,VWS V14.01,2013-05-07 17:42:00,
2013-05-07 12:47:00,74.5,51.8,30.01,South,183,7.0,13.0,45,0.00,,SKC,0.00,VWS V14.01,2013-05-07 17:47:00,
2013-05-07 12:52:00,75.3,53.1,30.01,SSW,198,11.0,12.0,46,0.00,,SKC,0.00,VWS V14.01,2013-05-07 17:52:00,
2013-05-07 12:57:00,75.3,51.3,30.01,SE,144,8.0,13.0,43,0.00,,SKC,0.00,VWS V14.01,2013-05-07 17:57:00,
2013-05-07 13:02:00,75.4,52.0,30.01,SSE,163,3.0,6.0,44,0.00,,SKC,0.00,VWS V14.01,2013-05-07 18:02:00,
2013-05-07 13:07:00,75.4,51.4,30.00,South,183,6.0,7.0,43,0.00,,SKC,0.00,VWS V14.01,2013-05-07 18:07:00,
2013-05-07 13:12:00,75.6,52.2,30.00,South,184,7.0,9.0,44,0.00,,SKC,0.00,VWS V14.01,2013-05-07 18:12:00,
2013-05-07 13:17:00,75.4,50.7,30.00,South,175,6.0,14.0,42,0.00,,SKC,0.00,VWS V14.01,2013-05-07 18:17:00,
2013-05-07 13:22:00,75.8,51.7,30.00,SSE,168,9.0,10.0,43,0.00,,SKC,0.00,VWS V14.01,2013-05-07 18:22:00,
2013-05-07 13:27:00,75.8,51.1,29.99,SSE,164,4.0,11.0,42,0.00,,SKC,0.00,VWS V14.01,2013-05-07 18:27:00,
2013-05-07 13:32:00,76.5,53.0,29.99,South,189,7.0,15.0,44,0.00,,SKC,0.00,VWS V14.01,2013-05-07 18:32:00,
2013-05-07 13:37:00,76.4,51.0,29.99,South,171,5.0,9.0,41,0.00,,SKC,0.00,VWS V14.01,2013-05-07 18:37:00,
2013-05-07 13:42:00,76.6,51.8,29.99,SSE,160,7.0,10.0,42,0.00,,SKC,0.00,VWS V14.01,2013-05-07 18:42:00,
2013-05-07 13:47:00,76.7,51.2,29.99,ESE,117,4.0,12.0,41,0.00,,SKC,0.00,VWS V14.01,2013-05-07 18:47:00,
2013-05-07 13:52:00,77.0,52.2,29.99,SSW,210,10.0,10.0,42,0.00,,SKC,0.00,VWS V14.01,2013-05-07 18:52:00,
2013-05-07 13:57:00,77.3,51.1,29.98,SSE,159,7.0,7.0,40,0.00,,SKC,0.00,VWS V14.01,2013-05-07 18:57:00,
2013-05-07 14:02:00,77.1,50.9,29.98,SSE,168,8.0,13.0,40,0.00,,SKC,0.00,VWS V14.01,2013-05-07 19:02:00,
2013-05-07 14:07:00,77.2,51.0,29.98,ESE,108,3.0,10.0,40,0.00,,SKC,0.00,VWS V14.01,2013-05-07 19:07:00,
2013-05-07 14:12:00,77.6,52.7,29.98,SE,130,6.0,7.0,42,0.00,,SKC,0.00,VWS V14.01,2013-05-07 19:12:00,
2013-05-07 14:17:00,78.1,52.5,29.97,SE,126,3.0,10.0,41,0.00,,SKC,0.00,VWS V14.01,2013-05-07 19:17:00,
2013-05-07 14:22:00,78.0,51.1,29.98,SE,133,7.0,11.0,39,0.00,,SKC,0.00,VWS V14.01,2013-05-07 19:22:00,
2013-05-07 14:27:00,78.2,51.9,29.97,SSE,168,6.0,9.0,40,0.00,,SKC,0.00,VWS V14.01,2013-05-07 19:27:00,
2013-05-07 14:32:00,78.9,51.9,29.97,SSE,161,9.0,15.0,39,0.00,,SKC,0.00,VWS V14.01,2013-05-07 19:32:00,
2013-05-07 14:37:00,78.3,50.6,29.97,SE,146,6.0,7.0,38,0.00,,SKC,0.00,VWS V14.01,2013-05-07 19:37:00,
2013-05-07 14:44:00,78.1,51.2,29.97,SE,140,7.0,11.0,39,0.00,,SKC,0.00,VWS V14.01,2013-05-07 19:44:00,
2013-05-07 14:49:00,78.0,51.1,29.97,South,185,9.0,15.0,39,0.00,,SKC,0.00,VWS V14.01,2013-05-07 19:49:00,
2013-05-07 14:54:00,78.3,51.3,29.97,SSE,162,7.0,11.0,39,0.00,,SKC,0.00,VWS V14.01,2013-05-07 19:54:00,
2013-05-07 14:59:00,78.5,50.8,29.97,ESE,117,3.0,12.0,38,0.00,,SKC,0.00,VWS V14.01,2013-05-07 19:59:00,
2013-05-07 15:04:00,78.0,51.8,29.96,South,178,9.0,11.0,40,0.00,,SKC,0.00,VWS V14.01,2013-05-07 20:04:00,
2013-05-07 15:09:00,78.2,52.6,29.96,SE,127,7.0,11.0,41,0.00,,SKC,0.00,VWS V14.01,2013-05-07 20:09:00,
2013-05-07 15:14:00,77.6,50.7,29.97,South,187,10.0,13.0,39,0.00,,SKC,0.00,VWS V14.01,2013-05-07 20:14:00,
2013-05-07 15:19:00,76.7,49.2,29.97,South,188,10.0,11.0,38,0.00,,SKC,0.00,VWS V14.01,2013-05-07 20:19:00,
2013-05-07 15:24:00,76.3,48.8,29.97,SSW,198,5.0,12.0,38,0.00,,SKC,0.00,VWS V14.01,2013-05-07 20:24:00,
2013-05-07 15:29:00,76.1,49.4,29.97,South,174,5.0,11.0,39,0.00,,SKC,0.00,VWS V14.01,2013-05-07 20:29:00,
2013-05-07 15:34:00,75.9,49.2,29.95,SSE,156,6.0,7.0,39,0.00,,SKC,0.00,VWS V14.01,2013-05-07 20:34:00,
2013-05-07 15:39:00,76.1,50.7,29.95,South,185,9.0,16.0,41,0.00,,SKC,0.00,VWS V14.01,2013-05-07 20:39:00,
2013-05-07 15:44:00,77.1,50.9,29.94,SSE,161,5.0,10.0,40,0.00,,SKC,0.00,VWS V14.01,2013-05-07 20:44:00,
2013-05-07 15:49:00,78.2,51.2,29.94,SSW,192,6.0,13.0,39,0.00,,SKC,0.00,VWS V14.01,2013-05-07 20:49:00,
2013-05-07 15:54:00,78.7,51.7,29.94,South,180,5.0,10.0,39,0.00,,SKC,0.00,VWS V14.01,2013-05-07 20:54:00,
2013-05-07 15:59:00,78.8,52.5,29.93,SSE,167,9.0,11.0,40,0.00,,SKC,0.00,VWS V14.01,2013-05-07 20:59:00,
2013-05-07 16:04:00,79.1,51.3,29.93,SSW,197,9.0,9.0,38,0.00,,SKC,0.00,VWS V14.01,2013-05-07 21:04:00,
2013-05-07 16:09:00,78.2,49.1,29.93,South,187,6.0,10.0,36,0.00,,SKC,0.00,VWS V14.01,2013-05-07 21:09:00,
2013-05-07 16:14:00,77.5,51.3,29.93,SSE,148,6.0,7.0,40,0.00,,SKC,0.00,VWS V14.01,2013-05-07 21:14:00,
2013-05-07 16:19:00,78.1,51.8,29.93,SE,144,6.0,8.0,40,0.00,,SKC,0.00,VWS V14.01,2013-05-07 21:19:00,
2013-05-07 16:24:00,78.9,50.4,29.92,SSE,147,6.0,9.0,37,0.00,,SKC,0.00,VWS V14.01,2013-05-07 21:24:00,
2013-05-07 16:29:00,79.1,51.3,29.92,SSE,166,11.0,12.0,38,0.00,,SKC,0.00,VWS V14.01,2013-05-07 21:29:00,
2013-05-07 16:34:00,79.8,50.5,29.92,South,186,9.0,11.0,36,0.00,,SKC,0.00,VWS V14.01,2013-05-07 21:34:00,
2013-05-07 16:39:00,79.4,49.4,29.92,South,190,7.0,12.0,35,0.00,,SKC,0.00,VWS V14.01,2013-05-07 21:39:00,
2013-05-07 16:44:00,79.4,50.2,29.92,SE,132,2.0,7.0,36,0.00,,SKC,0.00,VWS V14.01,2013-05-07 21:44:00,
2013-05-07 16:49:00,79.5,50.2,29.91,SE,145,8.0,14.0,36,0.00,,SKC,0.00,VWS V14.01,2013-05-07 21:49:00,
2013-05-07 16:54:00,79.6,49.6,29.91,SE,146,9.0,13.0,35,0.00,,SKC,0.00,VWS V14.01,2013-05-07 21:54:00,
2013-05-07 16:59:00,79.0,49.0,29.91,South,183,7.0,9.0,35,0.00,,SKC,0.00,VWS V14.01,2013-05-07 21:59:00,
2013-05-07 17:04:00,78.7,48.8,29.91,SE,133,4.0,6.0,35,0.00,,SKC,0.00,VWS V14.01,2013-05-07 22:04:00,
2013-05-07 17:09:00,79.3,50.1,29.91,SE,134,7.0,9.0,36,0.00,,SKC,0.00,VWS V14.01,2013-05-07 22:09:00,
2013-05-07 17:14:00,79.8,49.7,29.91,SSW,194,10.0,11.0,35,0.00,,SKC,0.00,VWS V14.01,2013-05-07 22:14:00,
2013-05-07 17:19:00,79.5,50.2,29.91,SE,144,8.0,11.0,36,0.00,,SKC,0.00,VWS V14.01,2013-05-07 22:19:00,
2013-05-07 17:24:00,79.5,49.5,29.91,South,188,12.0,14.0,35,0.00,,SKC,0.00,VWS V14.01,2013-05-07 22:24:00,
2013-05-07 17:29:00,79.7,50.4,29.90,South,186,5.0,9.0,36,0.00,,SKC,0.00,VWS V14.01,2013-05-07 22:29:00,
2013-05-07 17:34:00,79.9,49.8,29.90,SSE,161,7.0,13.0,35,0.00,,SKC,0.00,VWS V14.01,2013-05-07 22:34:00,
2013-05-07 17:39:00,79.0,49.8,29.90,South,190,8.0,11.0,36,0.00,,SKC,0.00,VWS V14.01,2013-05-07 22:39:00,
2013-05-07 17:44:00,77.9,48.8,29.90,SSW,205,10.0,16.0,36,0.00,,SKC,0.00,VWS V14.01,2013-05-07 22:44:00,
2013-05-07 17:49:00,77.7,49.4,29.90,South,173,4.0,6.0,37,0.00,,SKC,0.00,VWS V14.01,2013-05-07 22:49:00,
2013-05-07 17:54:00,78.2,49.1,29.90,South,183,7.0,12.0,36,0.00,,SKC,0.00,VWS V14.01,2013-05-07 22:54:00,
2013-05-07 17:59:00,78.9,49.7,29.90,SSE,157,4.0,7.0,36,0.00,,SKC,0.00,VWS V14.01,2013-05-07 22:59:00,
2013-05-07 18:04:00,79.2,49.2,29.90,SSW,199,5.0,9.0,35,0.00,,SKC,0.00,VWS V14.01,2013-05-07 23:04:00,
2013-05-07 18:09:00,78.2,49.1,29.90,SSE,163,4.0,9.0,36,0.00,,SKC,0.00,VWS V14.01,2013-05-07 23:09:00,
2013-05-07 18:14:00,77.8,49.5,29.90,SSE,153,8.0,12.0,37,0.00,,SKC,0.00,VWS V14.01,2013-05-07 23:14:00,
2013-05-07 18:19:00,77.6,49.3,29.90,SE,128,4.0,4.0,37,0.00,,SKC,0.00,VWS V14.01,2013-05-07 23:19:00,
2013-05-07 18:24:00,77.7,49.4,29.90,SE,129,4.0,6.0,37,0.00,,SKC,0.00,VWS V14.01,2013-05-07 23:24:00,
2013-05-07 18:29:00,77.7,49.4,29.90,SE,142,4.0,7.0,37,0.00,,SKC,0.00,VWS V14.01,2013-05-07 23:29:00,
2013-05-07 18:34:00,77.6,49.3,29.91,SSE,149,2.0,5.0,37,0.00,,SKC,0.00,VWS V14.01,2013-05-07 23:34:00,
2013-05-07 18:39:00,77.5,49.9,29.91,ESE,119,2.0,4.0,38,0.00,,SKC,0.00,VWS V14.01,2013-05-07 23:39:00,
2013-05-07 18:44:00,77.6,49.3,29.91,SE,131,2.0,9.0,37,0.00,,SKC,0.00,VWS V14.01,2013-05-07 23:44:00,
2013-05-07 18:49:00,77.6,50.0,29.90,ESE,107,1.0,6.0,38,0.00,,SKC,0.00,VWS V14.01,2013-05-07 23:49:00,
2013-05-07 18:54:00,77.5,49.9,29.90,SE,140,4.0,9.0,38,0.00,,SKC,0.00,VWS V14.01,2013-05-07 23:54:00,
2013-05-07 18:59:00,77.5,49.9,29.90,SE,145,9.0,10.0,38,0.00,,SKC,0.00,VWS V14.01,2013-05-07 23:59:00,
2013-05-07 19:04:00,77.6,50.0,29.90,SSE,163,5.0,8.0,38,0.00,,SKC,0.00,VWS V14.01,2013-05-08 00:04:00,
2013-05-07 19:09:00,77.7,50.1,29.90,SSE,151,2.0,4.0,38,0.00,,SKC,0.00,VWS V14.01,2013-05-08 00:09:00,
2013-05-07 19:14:00,77.6,50.0,29.90,SSE,160,2.0,7.0,38,0.00,,SKC,0.00,VWS V14.01,2013-05-08 00:14:00,
2013-05-07 19:19:00,77.1,49.6,29.90,SSE,165,6.0,13.0,38,0.00,,SKC,0.00,VWS V14.01,2013-05-08 00:19:00,
2013-05-07 19:24:00,76.7,49.9,29.90,SSE,155,6.0,6.0,39,0.00,,SKC,0.00,VWS V14.01,2013-05-08 00:24:00,
2013-05-07 19:29:00,76.4,50.3,29.90,South,183,11.0,13.0,40,0.00,,SKC,0.00,VWS V14.01,2013-05-08 00:29:00,
2013-05-07 19:34:00,75.5,50.8,29.90,South,186,7.0,11.0,42,0.00,,SKC,0.00,VWS V14.01,2013-05-08 00:34:00,
2013-05-07 19:39:00,74.8,50.8,29.90,South,190,7.0,11.0,43,0.00,,SKC,0.00,VWS V14.01,2013-05-08 00:39:00,
2013-05-07 19:44:00,74.4,50.5,29.90,SSE,153,4.0,10.0,43,0.00,,SKC,0.00,VWS V14.01,2013-05-08 00:44:00,
2013-05-07 19:49:00,74.0,50.7,29.90,South,173,6.0,9.0,44,0.00,,SKC,0.00,VWS V14.01,2013-05-08 00:49:00,
2013-05-07 19:54:00,73.7,50.5,29.90,South,179,6.0,7.0,44,0.00,,SKC,0.00,VWS V14.01,2013-05-08 00:54:00,
2013-05-07 19:59:00,73.4,50.2,29.90,SSE,165,7.0,7.0,44,0.00,,SKC,0.00,VWS V14.01,2013-05-08 00:59:00,
2013-05-07 20:04:00,73.1,50.5,29.90,SSE,149,6.0,10.0,45,0.00,,SKC,0.00,VWS V14.01,2013-05-08 01:04:00,
2013-05-07 20:09:00,72.8,50.2,29.91,SE,145,6.0,6.0,45,0.00,,SKC,0.00,VWS V14.01,2013-05-08 01:09:00,
2013-05-07 20:14:00,72.4,50.5,29.90,SE,143,7.0,7.0,46,0.00,,SKC,0.00,VWS V14.01,2013-05-08 01:14:00,
2013-05-07 20:19:00,72.2,50.3,29.91,SSE,168,1.0,5.0,46,0.00,,SKC,0.00,VWS V14.01,2013-05-08 01:19:00,
2013-05-07 20:24:00,72.0,50.1,29.91,SSE,160,4.0,4.0,46,0.00,,SKC,0.00,VWS V14.01,2013-05-08 01:24:00,
2013-05-07 20:29:00,71.7,49.8,29.91,SSE,159,3.0,5.0,46,0.00,,SKC,0.00,VWS V14.01,2013-05-08 01:29:00,
2013-05-07 20:34:00,71.4,50.1,29.91,SSE,165,5.0,5.0,47,0.00,,SKC,0.00,VWS V14.01,2013-05-08 01:34:00,
2013-05-07 20:39:00,71.2,50.0,29.91,SSE,150,1.0,5.0,47,0.00,,SKC,0.00,VWS V14.01,2013-05-08 01:39:00,
2013-05-07 20:44:00,71.0,49.8,29.91,SE,144,4.0,5.0,47,0.00,,SKC,0.00,VWS V14.01,2013-05-08 01:44:00,
2013-05-07 20:49:00,71.0,49.8,29.91,SE,144,2.0,5.0,47,0.00,,SKC,0.00,VWS V14.01,2013-05-08 01:49:00,
2013-05-07 20:54:00,70.8,50.2,29.91,SE,140,4.0,7.0,48,0.00,,SKC,0.00,VWS V14.01,2013-05-08 01:54:00,
2013-05-07 20:59:00,70.8,50.2,29.91,SE,146,2.0,5.0,48,0.00,,SKC,0.00,VWS V14.01,2013-05-08 01:59:00,
2013-05-07 21:04:00,70.7,50.1,29.91,SSE,167,7.0,7.0,48,0.00,,SKC,0.00,VWS V14.01,2013-05-08 02:04:00,
2013-05-07 21:09:00,70.7,50.1,29.91,SE,145,1.0,9.0,48,0.00,,SKC,0.00,VWS V14.01,2013-05-08 02:09:00,
2013-05-07 21:14:00,70.5,50.4,29.91,SE,140,1.0,3.0,49,0.00,,SKC,0.00,VWS V14.01,2013-05-08 02:14:00,
2013-05-07 21:19:00,70.3,50.3,29.91,SSE,150,2.0,3.0,49,0.00,,SKC,0.00,VWS V14.01,2013-05-08 02:19:00,
2013-05-07 21:24:00,70.2,50.2,29.91,SE,140,3.0,5.0,49,0.00,,SKC,0.00,VWS V14.01,2013-05-08 02:24:00,
2013-05-07 21:29:00,70.0,50.5,29.91,SSE,149,2.0,2.0,50,0.00,,SKC,0.00,VWS V14.01,2013-05-08 02:29:00,
2013-05-07 21:34:00,69.9,50.4,29.91,SE,146,3.0,4.0,50,0.00,,SKC,0.00,VWS V14.01,2013-05-08 02:34:00,
2013-05-07 21:39:00,69.7,50.2,29.91,SE,141,5.0,5.0,50,0.00,,SKC,0.00,VWS V14.01,2013-05-08 02:39:00,
2013-05-07 21:44:00,69.6,50.2,29.91,South,182,2.0,6.0,50,0.00,,SKC,0.00,VWS V14.01,2013-05-08 02:44:00,
2013-05-07 21:49:00,69.4,50.5,29.91,SSE,159,2.0,2.0,51,0.00,,SKC,0.00,VWS V14.01,2013-05-08 02:49:00,
2013-05-07 21:54:00,69.3,50.4,29.92,SSE,150,3.0,3.0,51,0.00,,SKC,0.00,VWS V14.01,2013-05-08 02:54:00,
2013-05-07 21:59:00,69.1,50.2,29.92,SE,134,2.0,3.0,51,0.00,,SKC,0.00,VWS V14.01,2013-05-08 02:59:00,
2013-05-07 22:04:00,69.0,50.1,29.92,SE,132,4.0,4.0,51,0.00,,SKC,0.00,VWS V14.01,2013-05-08 03:04:00,
2013-05-07 22:09:00,69.0,50.1,29.92,South,171,3.0,3.0,51,0.00,,SKC,0.00,VWS V14.01,2013-05-08 03:09:00,
2013-05-07 22:14:00,68.9,50.0,29.92,SSE,150,6.0,6.0,51,0.00,,SKC,0.00,VWS V14.01,2013-05-08 03:14:00,
2013-05-07 22:19:00,68.7,49.9,29.92,SSE,148,1.0,4.0,51,0.00,,SKC,0.00,VWS V14.01,2013-05-08 03:19:00,
2013-05-07 22:24:00,68.5,50.2,29.92,SSE,149,2.0,2.0,52,0.00,,SKC,0.00,VWS V14.01,2013-05-08 03:24:00,
2013-05-07 22:29:00,68.3,50.0,29.92,SSE,150,2.0,3.0,52,0.00,,SKC,0.00,VWS V14.01,2013-05-08 03:29:00,
2013-05-07 22:34:00,68.1,49.8,29.92,SSE,163,5.0,5.0,52,0.00,,SKC,0.00,VWS V14.01,2013-05-08 03:34:00,
2013-05-07 22:39:00,68.0,50.2,29.92,SSE,157,1.0,4.0,53,0.00,,SKC,0.00,VWS V14.01,2013-05-08 03:39:00,
2013-05-07 22:44:00,67.9,50.2,29.92,SE,142,4.0,7.0,53,0.00,,SKC,0.00,VWS V14.01,2013-05-08 03:44:00,
2013-05-07 22:49:00,67.8,50.1,29.92,SSE,150,2.0,6.0,53,0.00,,SKC,0.00,VWS V14.01,2013-05-08 03:49:00,
2013-05-07 22:54:00,67.7,50.0,29.92,South,173,5.0,9.0,53,0.00,,SKC,0.00,VWS V14.01,2013-05-08 03:54:00,
2013-05-07 22:59:00,67.7,50.0,29.92,SSE,149,5.0,9.0,53,0.00,,SKC,0.00,VWS V14.01,2013-05-08 03:59:00,
2013-05-07 23:01:00,67.7,50.0,29.92,SE,141,2.0,5.0,53,0.00,,SKC,0.00,VWS V14.01,2013-05-08 04:01:00,
2013-05-07 23:06:00,67.7,50.0,29.92,SSE,162,1.0,1.0,53,0.00,,SKC,0.00,VWS V14.01,2013-05-08 04:06:00,
2013-05-07 23:11:00,67.3,50.1,29.92,South,170,4.0,4.0,54,0.00,,SKC,0.00,VWS V14.01,2013-05-08 04:11:00,
2013-05-07 23:16:00,66.9,49.7,29.92,SSE,160,4.0,4.0,54,0.00,,SKC,0.00,VWS V14.01,2013-05-08 04:16:00,
2013-05-07 23:21:00,66.6,50.0,29.92,SSE,162,3.0,3.0,55,0.00,,SKC,0.00,VWS V14.01,2013-05-08 04:21:00,
2013-05-07 23:26:00,66.3,49.7,29.92,SSE,159,6.0,6.0,55,0.00,,SKC,0.00,VWS V14.01,2013-05-08 04:26:00,
2013-05-07 23:31:00,66.1,50.0,29.92,SSE,155,2.0,2.0,56,0.00,,SKC,0.00,VWS V14.01,2013-05-08 04:31:00,
2013-05-07 23:36:00,65.8,49.7,29.92,SSE,152,4.0,4.0,56,0.00,,SKC,0.00,VWS V14.01,2013-05-08 04:36:00,
2013-05-07 23:41:00,65.7,50.1,29.92,SSE,158,3.0,4.0,57,0.00,,SKC,0.00,VWS V14.01,2013-05-08 04:41:00,
2013-05-07 23:46:00,65.7,50.1,29.93,SSE,159,2.0,2.0,57,0.00,,SKC,0.00,VWS V14.01,2013-05-08 04:46:00,
2013-05-07 23:51:00,65.6,50.0,29.92,SE,141,4.0,4.0,57,0.00,,SKC,0.00,VWS V14.01,2013-05-08 04:51:00,
2013-05-07 23:56:00,65.8,50.2,29.92,South,169,5.0,6.0,57,0.00,,SKC,0.00,VWS V14.01,2013-05-08 04:56:00,